sensor_id;sensor_type;location;lat;lon;timestamp;temperature;humidity
7248;DHT22;3665;51.034;13.642;2022-08-25T00:00:40;16.90;99.90
7248;DHT22;3665;51.034;13.642;2022-08-25T00:05:35;16.90;99.90
7248;DHT22;3665;51.034;13.642;2022-08-25T00:10:19;17.00;99.90
7248;DHT22;3665;51.034;13.642;2022-08-25T00:15:04;17.00;99.90
7248;DHT22;3665;51.034;13.642;2022-08-25T00:19:48;16.90;99.90
7248;DHT22;3665;51.034;13.642;2022-08-25T00:24:33;16.80;99.90
7248;DHT22;3665;51.034;13.642;2022-08-25T00:29:17;16.80;99.90
7248;DHT22;3665;51.034;13.642;2022-08-25T00:34:02;16.70;99.90
7248;DHT22;3665;51.034;13.642;2022-08-25T00:38:48;16.80;99.90
7248;DHT22;3665;51.034;13.642;2022-08-25T00:43:41;16.80;99.90
7248;DHT22;3665;51.034;13.642;2022-08-25T00:48:26;16.70;99.90
7248;DHT22;3665;51.034;13.642;2022-08-25T00:53:10;16.70;99.90
7248;DHT22;3665;51.034;13.642;2022-08-25T00:57:56;16.60;99.90
7248;DHT22;3665;51.034;13.642;2022-08-25T01:02:42;16.50;99.90
7248;DHT22;3665;51.034;13.642;2022-08-25T01:07:26;16.50;99.90
7248;DHT22;3665;51.034;13.642;2022-08-25T01:12:10;16.50;99.90
7248;DHT22;3665;51.034;13.642;2022-08-25T01:16:53;16.50;99.90
7248;DHT22;3665;51.034;13.642;2022-08-25T01:21:42;16.40;99.90
7248;DHT22;3665;51.034;13.642;2022-08-25T01:26:28;16.40;99.90
7248;DHT22;3665;51.034;13.642;2022-08-25T01:31:12;16.40;99.90
7248;DHT22;3665;51.034;13.642;2022-08-25T01:36:05;16.30;99.90
7248;DHT22;3665;51.034;13.642;2022-08-25T01:40:51;16.20;99.90
7248;DHT22;3665;51.034;13.642;2022-08-25T01:45:35;16.30;99.90
7248;DHT22;3665;51.034;13.642;2022-08-25T01:50:20;16.30;99.90
7248;DHT22;3665;51.034;13.642;2022-08-25T01:55:04;16.30;99.90
7248;DHT22;3665;51.034;13.642;2022-08-25T01:59:49;16.30;99.90
7248;DHT22;3665;51.034;13.642;2022-08-25T02:04:33;16.30;99.90
7248;DHT22;3665;51.034;13.642;2022-08-25T02:09:17;16.20;99.90
7248;DHT22;3665;51.034;13.642;2022-08-25T02:14:01;16.20;99.90
7248;DHT22;3665;51.034;13.642;2022-08-25T02:18:46;16.10;99.90
7248;DHT22;3665;51.034;13.642;2022-08-25T02:23:30;16.40;99.90
7248;DHT22;3665;51.034;13.642;2022-08-25T02:28:13;16.70;99.90
7248;DHT22;3665;51.034;13.642;2022-08-25T02:32:57;16.80;99.90
7248;DHT22;3665;51.034;13.642;2022-08-25T02:37:42;16.80;99.90
7248;DHT22;3665;51.034;13.642;2022-08-25T02:42:26;16.90;99.90
7248;DHT22;3665;51.034;13.642;2022-08-25T02:47:10;17.00;99.90
7248;DHT22;3665;51.034;13.642;2022-08-25T02:51:54;17.00;99.90
7248;DHT22;3665;51.034;13.642;2022-08-25T02:56:38;17.10;99.90
7248;DHT22;3665;51.034;13.642;2022-08-25T03:01:25;17.20;99.90
7248;DHT22;3665;51.034;13.642;2022-08-25T03:06:11;17.20;99.90
7248;DHT22;3665;51.034;13.642;2022-08-25T03:10:55;17.20;99.90
7248;DHT22;3665;51.034;13.642;2022-08-25T03:15:40;17.20;99.90
7248;DHT22;3665;51.034;13.642;2022-08-25T03:20:24;17.10;99.90
7248;DHT22;3665;51.034;13.642;2022-08-25T03:25:09;17.10;99.90
7248;DHT22;3665;51.034;13.642;2022-08-25T03:30:11;16.90;99.90
7248;DHT22;3665;51.034;13.642;2022-08-25T03:34:56;16.90;99.90
7248;DHT22;3665;51.034;13.642;2022-08-25T03:39:40;16.90;99.90
7248;DHT22;3665;51.034;13.642;2022-08-25T03:44:23;16.90;99.90
7248;DHT22;3665;51.034;13.642;2022-08-25T03:49:09;16.90;99.90
7248;DHT22;3665;51.034;13.642;2022-08-25T03:53:55;16.90;99.90
7248;DHT22;3665;51.034;13.642;2022-08-25T03:58:39;16.90;99.90
7248;DHT22;3665;51.034;13.642;2022-08-25T04:03:23;16.80;99.90
7248;DHT22;3665;51.034;13.642;2022-08-25T04:08:07;16.70;99.90
7248;DHT22;3665;51.034;13.642;2022-08-25T04:12:52;16.70;99.90
7248;DHT22;3665;51.034;13.642;2022-08-25T04:17:38;16.50;99.90
7248;DHT22;3665;51.034;13.642;2022-08-25T04:22:22;16.50;99.90
7248;DHT22;3665;51.034;13.642;2022-08-25T04:27:05;16.50;99.90
7248;DHT22;3665;51.034;13.642;2022-08-25T04:31:51;16.70;99.90
7248;DHT22;3665;51.034;13.642;2022-08-25T04:36:36;16.60;99.90
7248;DHT22;3665;51.034;13.642;2022-08-25T04:41:21;16.70;99.90
7248;DHT22;3665;51.034;13.642;2022-08-25T04:46:09;16.80;99.90
7248;DHT22;3665;51.034;13.642;2022-08-25T04:50:55;16.80;99.90
7248;DHT22;3665;51.034;13.642;2022-08-25T04:55:39;16.90;99.90
7248;DHT22;3665;51.034;13.642;2022-08-25T05:00:23;17.10;99.90
7248;DHT22;3665;51.034;13.642;2022-08-25T05:05:07;17.30;99.90
7248;DHT22;3665;51.034;13.642;2022-08-25T05:09:52;17.50;99.90
7248;DHT22;3665;51.034;13.642;2022-08-25T05:14:35;17.60;99.90
7248;DHT22;3665;51.034;13.642;2022-08-25T05:19:19;17.60;99.90
7248;DHT22;3665;51.034;13.642;2022-08-25T05:24:04;17.80;99.90
7248;DHT22;3665;51.034;13.642;2022-08-25T05:28:51;17.90;99.90
7248;DHT22;3665;51.034;13.642;2022-08-25T05:33:36;18.10;99.90
7248;DHT22;3665;51.034;13.642;2022-08-25T05:38:21;18.30;99.90
7248;DHT22;3665;51.034;13.642;2022-08-25T05:43:05;18.50;99.90
7248;DHT22;3665;51.034;13.642;2022-08-25T05:47:59;18.80;99.90
7248;DHT22;3665;51.034;13.642;2022-08-25T05:52:44;19.20;99.90
7248;DHT22;3665;51.034;13.642;2022-08-25T05:57:33;19.70;99.90
7248;DHT22;3665;51.034;13.642;2022-08-25T06:02:17;20.00;99.90
7248;DHT22;3665;51.034;13.642;2022-08-25T06:07:26;20.20;99.90
7248;DHT22;3665;51.034;13.642;2022-08-25T06:12:12;20.30;99.90
7248;DHT22;3665;51.034;13.642;2022-08-25T06:16:57;20.60;99.90
7248;DHT22;3665;51.034;13.642;2022-08-25T06:21:43;20.50;99.90
7248;DHT22;3665;51.034;13.642;2022-08-25T06:26:29;20.80;99.90
7248;DHT22;3665;51.034;13.642;2022-08-25T06:31:13;20.90;99.90
7248;DHT22;3665;51.034;13.642;2022-08-25T06:35:59;21.20;99.90
7248;DHT22;3665;51.034;13.642;2022-08-25T06:40:46;21.40;99.90
7248;DHT22;3665;51.034;13.642;2022-08-25T06:45:33;21.50;99.90
7248;DHT22;3665;51.034;13.642;2022-08-25T06:50:24;21.80;99.90
7248;DHT22;3665;51.034;13.642;2022-08-25T06:55:09;22.00;99.90
7248;DHT22;3665;51.034;13.642;2022-08-25T06:59:54;22.40;99.90
7248;DHT22;3665;51.034;13.642;2022-08-25T07:04:42;22.60;99.90
7248;DHT22;3665;51.034;13.642;2022-08-25T07:09:26;23.00;99.90
7248;DHT22;3665;51.034;13.642;2022-08-25T07:14:15;23.20;99.90
7248;DHT22;3665;51.034;13.642;2022-08-25T07:19:06;23.50;99.90
7248;DHT22;3665;51.034;13.642;2022-08-25T07:23:58;23.70;99.90
7248;DHT22;3665;51.034;13.642;2022-08-25T07:28:46;23.90;99.90
7248;DHT22;3665;51.034;13.642;2022-08-25T07:33:32;24.00;99.90
7248;DHT22;3665;51.034;13.642;2022-08-25T07:38:17;24.50;94.50
7248;DHT22;3665;51.034;13.642;2022-08-25T07:43:10;24.70;90.90
7248;DHT22;3665;51.034;13.642;2022-08-25T07:48:02;24.80;82.90
7248;DHT22;3665;51.034;13.642;2022-08-25T07:52:49;25.20;72.00
7248;DHT22;3665;51.034;13.642;2022-08-25T07:57:38;25.50;67.50
7248;DHT22;3665;51.034;13.642;2022-08-25T08:02:39;25.40;63.50
7248;DHT22;3665;51.034;13.642;2022-08-25T08:07:27;25.10;57.30
7248;DHT22;3665;51.034;13.642;2022-08-25T08:12:25;25.10;59.30
7248;DHT22;3665;51.034;13.642;2022-08-25T08:17:11;25.80;58.00
7248;DHT22;3665;51.034;13.642;2022-08-25T08:22:00;26.20;47.70
7248;DHT22;3665;51.034;13.642;2022-08-25T08:26:48;26.00;43.50
7248;DHT22;3665;51.034;13.642;2022-08-25T08:31:43;25.90;46.40
7248;DHT22;3665;51.034;13.642;2022-08-25T08:36:34;26.00;42.20
7248;DHT22;3665;51.034;13.642;2022-08-25T08:41:36;25.50;47.70
7248;DHT22;3665;51.034;13.642;2022-08-25T08:47:08;25.60;47.50
7248;DHT22;3665;51.034;13.642;2022-08-25T08:52:01;26.00;38.80
7248;DHT22;3665;51.034;13.642;2022-08-25T08:57:07;26.20;32.70
7248;DHT22;3665;51.034;13.642;2022-08-25T09:01:58;26.40;31.50
7248;DHT22;3665;51.034;13.642;2022-08-25T09:06:49;27.00;26.90
7248;DHT22;3665;51.034;13.642;2022-08-25T09:11:55;27.10;22.30
7248;DHT22;3665;51.034;13.642;2022-08-25T09:16:51;27.40;21.50
7248;DHT22;3665;51.034;13.642;2022-08-25T09:21:48;27.30;19.90
7248;DHT22;3665;51.034;13.642;2022-08-25T09:26:42;27.40;20.80
7248;DHT22;3665;51.034;13.642;2022-08-25T09:31:33;28.40;15.60
7248;DHT22;3665;51.034;13.642;2022-08-25T09:36:19;28.90;12.70
7248;DHT22;3665;51.034;13.642;2022-08-25T09:41:40;29.20;10.20
7248;DHT22;3665;51.034;13.642;2022-08-25T09:46:27;29.30;7.70
7248;DHT22;3665;51.034;13.642;2022-08-25T09:51:24;29.10;5.20
7248;DHT22;3665;51.034;13.642;2022-08-25T09:56:29;29.20;3.10
7248;DHT22;3665;51.034;13.642;2022-08-25T10:01:17;28.90;1.50
7248;DHT22;3665;51.034;13.642;2022-08-25T10:06:14;28.80;1.00
7248;DHT22;3665;51.034;13.642;2022-08-25T10:11:08;29.20;1.00
7248;DHT22;3665;51.034;13.642;2022-08-25T10:16:38;29.50;1.00
7248;DHT22;3665;51.034;13.642;2022-08-25T10:21:35;29.80;1.00
7248;DHT22;3665;51.034;13.642;2022-08-25T10:26:33;29.70;1.00
7248;DHT22;3665;51.034;13.642;2022-08-25T10:31:27;29.90;1.00
7248;DHT22;3665;51.034;13.642;2022-08-25T10:36:20;30.20;1.00
7248;DHT22;3665;51.034;13.642;2022-08-25T10:41:39;29.80;1.00
7248;DHT22;3665;51.034;13.642;2022-08-25T10:47:22;29.90;1.00
7248;DHT22;3665;51.034;13.642;2022-08-25T10:52:15;29.60;1.00
7248;DHT22;3665;51.034;13.642;2022-08-25T10:57:11;29.80;1.00
7248;DHT22;3665;51.034;13.642;2022-08-25T11:02:35;29.70;1.00
7248;DHT22;3665;51.034;13.642;2022-08-25T11:08:05;29.60;1.00
7248;DHT22;3665;51.034;13.642;2022-08-25T11:13:17;30.80;1.00
7248;DHT22;3665;51.034;13.642;2022-08-25T11:18:50;30.90;1.00
7248;DHT22;3665;51.034;13.642;2022-08-25T11:24:12;30.70;1.00
7248;DHT22;3665;51.034;13.642;2022-08-25T11:29:11;30.60;1.00
7248;DHT22;3665;51.034;13.642;2022-08-25T11:33:59;30.70;1.00
7248;DHT22;3665;51.034;13.642;2022-08-25T11:39:35;30.60;1.00
7248;DHT22;3665;51.034;13.642;2022-08-25T11:45:07;30.20;1.00
7248;DHT22;3665;51.034;13.642;2022-08-25T11:51:01;30.30;1.00
7248;DHT22;3665;51.034;13.642;2022-08-25T11:56:32;30.90;1.00
7248;DHT22;3665;51.034;13.642;2022-08-25T12:02:28;31.60;1.00
7248;DHT22;3665;51.034;13.642;2022-08-25T12:08:02;31.70;1.00
7248;DHT22;3665;51.034;13.642;2022-08-25T12:13:49;31.10;1.00
7248;DHT22;3665;51.034;13.642;2022-08-25T12:19:48;30.40;1.00
7248;DHT22;3665;51.034;13.642;2022-08-25T12:25:06;30.50;1.00
7248;DHT22;3665;51.034;13.642;2022-08-25T12:30:44;30.80;1.00
7248;DHT22;3665;51.034;13.642;2022-08-25T12:36:23;30.90;1.00
7248;DHT22;3665;51.034;13.642;2022-08-25T12:41:11;30.70;1.00
7248;DHT22;3665;51.034;13.642;2022-08-25T12:46:36;31.10;1.00
7248;DHT22;3665;51.034;13.642;2022-08-25T12:51:24;30.90;1.00
7248;DHT22;3665;51.034;13.642;2022-08-25T12:56:18;30.60;1.00
7248;DHT22;3665;51.034;13.642;2022-08-25T13:01:13;30.60;1.00
7248;DHT22;3665;51.034;13.642;2022-08-25T13:06:30;31.20;1.00
7248;DHT22;3665;51.034;13.642;2022-08-25T13:11:19;31.10;1.00
7248;DHT22;3665;51.034;13.642;2022-08-25T13:16:07;31.00;1.00
7248;DHT22;3665;51.034;13.642;2022-08-25T13:21:02;30.60;1.00
7248;DHT22;3665;51.034;13.642;2022-08-25T13:25:50;29.70;1.00
7248;DHT22;3665;51.034;13.642;2022-08-25T13:30:35;29.20;1.00
7248;DHT22;3665;51.034;13.642;2022-08-25T13:35:23;28.70;1.00
7248;DHT22;3665;51.034;13.642;2022-08-25T13:40:15;28.70;1.00
7248;DHT22;3665;51.034;13.642;2022-08-25T13:45:13;29.50;1.00
7248;DHT22;3665;51.034;13.642;2022-08-25T13:50:15;29.80;1.00
7248;DHT22;3665;51.034;13.642;2022-08-25T13:54:59;29.30;1.00
7248;DHT22;3665;51.034;13.642;2022-08-25T13:59:48;28.80;1.00
7248;DHT22;3665;51.034;13.642;2022-08-25T14:04:45;28.40;1.00
7248;DHT22;3665;51.034;13.642;2022-08-25T14:09:38;28.70;1.00
7248;DHT22;3665;51.034;13.642;2022-08-25T14:14:31;29.40;1.00
7248;DHT22;3665;51.034;13.642;2022-08-25T14:19:20;29.90;1.00
7248;DHT22;3665;51.034;13.642;2022-08-25T14:24:07;29.90;1.00
7248;DHT22;3665;51.034;13.642;2022-08-25T14:28:52;30.00;1.00
7248;DHT22;3665;51.034;13.642;2022-08-25T14:33:37;29.80;1.00
7248;DHT22;3665;51.034;13.642;2022-08-25T14:38:23;29.70;1.00
7248;DHT22;3665;51.034;13.642;2022-08-25T14:43:09;29.40;1.00
7248;DHT22;3665;51.034;13.642;2022-08-25T14:47:54;29.00;1.00
7248;DHT22;3665;51.034;13.642;2022-08-25T14:52:43;28.40;1.00
7248;DHT22;3665;51.034;13.642;2022-08-25T14:57:27;28.20;1.00
7248;DHT22;3665;51.034;13.642;2022-08-25T15:02:13;28.60;1.00
7248;DHT22;3665;51.034;13.642;2022-08-25T15:07:01;29.10;1.00
7248;DHT22;3665;51.034;13.642;2022-08-25T15:12:05;29.70;1.00
7248;DHT22;3665;51.034;13.642;2022-08-25T15:16:54;29.60;1.00
7248;DHT22;3665;51.034;13.642;2022-08-25T15:21:41;29.50;1.00
7248;DHT22;3665;51.034;13.642;2022-08-25T15:26:26;29.50;1.00
7248;DHT22;3665;51.034;13.642;2022-08-25T15:31:10;29.50;1.00
7248;DHT22;3665;51.034;13.642;2022-08-25T15:36:00;29.50;1.00
7248;DHT22;3665;51.034;13.642;2022-08-25T15:40:47;29.30;1.00
7248;DHT22;3665;51.034;13.642;2022-08-25T15:45:32;28.80;1.00
7248;DHT22;3665;51.034;13.642;2022-08-25T15:50:20;28.10;1.00
7248;DHT22;3665;51.034;13.642;2022-08-25T15:55:08;27.70;1.00
7248;DHT22;3665;51.034;13.642;2022-08-25T15:59:54;27.40;1.00
7248;DHT22;3665;51.034;13.642;2022-08-25T16:04:39;27.30;1.00
7248;DHT22;3665;51.034;13.642;2022-08-25T16:09:23;27.30;1.00
7248;DHT22;3665;51.034;13.642;2022-08-25T16:14:07;27.30;1.00
7248;DHT22;3665;51.034;13.642;2022-08-25T16:18:54;27.40;1.00
7248;DHT22;3665;51.034;13.642;2022-08-25T16:23:38;27.20;1.00
7248;DHT22;3665;51.034;13.642;2022-08-25T16:28:24;27.10;1.00
7248;DHT22;3665;51.034;13.642;2022-08-25T16:33:08;26.90;1.00
7248;DHT22;3665;51.034;13.642;2022-08-25T16:37:59;26.80;1.00
7248;DHT22;3665;51.034;13.642;2022-08-25T16:42:45;26.80;1.00
7248;DHT22;3665;51.034;13.642;2022-08-25T16:47:28;26.70;1.00
7248;DHT22;3665;51.034;13.642;2022-08-25T16:52:12;26.60;1.00
7248;DHT22;3665;51.034;13.642;2022-08-25T16:57:15;26.30;1.00
7248;DHT22;3665;51.034;13.642;2022-08-25T17:02:00;26.10;1.00
7248;DHT22;3665;51.034;13.642;2022-08-25T17:06:46;26.00;1.00
7248;DHT22;3665;51.034;13.642;2022-08-25T17:11:34;25.80;1.00
7248;DHT22;3665;51.034;13.642;2022-08-25T17:16:25;25.60;1.00
7248;DHT22;3665;51.034;13.642;2022-08-25T17:21:14;25.40;1.00
7248;DHT22;3665;51.034;13.642;2022-08-25T17:26:05;25.30;1.00
7248;DHT22;3665;51.034;13.642;2022-08-25T17:30:56;25.10;1.00
7248;DHT22;3665;51.034;13.642;2022-08-25T17:35:44;24.90;1.00
7248;DHT22;3665;51.034;13.642;2022-08-25T17:40:32;24.80;1.00
7248;DHT22;3665;51.034;13.642;2022-08-25T17:45:20;24.50;1.00
7248;DHT22;3665;51.034;13.642;2022-08-25T17:50:05;24.40;1.00
7248;DHT22;3665;51.034;13.642;2022-08-25T17:54:52;24.20;1.00
7248;DHT22;3665;51.034;13.642;2022-08-25T17:59:39;24.10;1.00
7248;DHT22;3665;51.034;13.642;2022-08-25T18:04:23;24.00;1.00
7248;DHT22;3665;51.034;13.642;2022-08-25T18:09:10;23.90;1.00
7248;DHT22;3665;51.034;13.642;2022-08-25T18:13:56;23.70;1.00
7248;DHT22;3665;51.034;13.642;2022-08-25T18:18:40;23.40;1.00
7248;DHT22;3665;51.034;13.642;2022-08-25T18:23:25;23.30;3.70
7248;DHT22;3665;51.034;13.642;2022-08-25T18:28:09;23.20;10.30
7248;DHT22;3665;51.034;13.642;2022-08-25T18:32:55;23.00;25.40
7248;DHT22;3665;51.034;13.642;2022-08-25T18:37:39;22.90;45.60
7248;DHT22;3665;51.034;13.642;2022-08-25T18:42:40;22.90;57.90
7248;DHT22;3665;51.034;13.642;2022-08-25T18:47:24;22.90;69.90
7248;DHT22;3665;51.034;13.642;2022-08-25T18:52:09;22.80;94.00
7248;DHT22;3665;51.034;13.642;2022-08-25T18:56:53;22.70;99.90
7248;DHT22;3665;51.034;13.642;2022-08-25T19:01:39;22.50;99.90
7248;DHT22;3665;51.034;13.642;2022-08-25T19:06:23;22.50;99.90
7248;DHT22;3665;51.034;13.642;2022-08-25T19:11:09;22.50;99.90
7248;DHT22;3665;51.034;13.642;2022-08-25T19:15:54;22.30;99.90
7248;DHT22;3665;51.034;13.642;2022-08-25T19:20:42;22.30;99.90
7248;DHT22;3665;51.034;13.642;2022-08-25T19:25:27;22.10;99.90
7248;DHT22;3665;51.034;13.642;2022-08-25T19:30:35;21.90;99.90
7248;DHT22;3665;51.034;13.642;2022-08-25T19:35:38;21.80;99.90
7248;DHT22;3665;51.034;13.642;2022-08-25T19:40:39;21.70;99.90
7248;DHT22;3665;51.034;13.642;2022-08-25T19:45:37;21.50;99.90
7248;DHT22;3665;51.034;13.642;2022-08-25T19:50:29;21.40;1.00
7248;DHT22;3665;51.034;13.642;2022-08-25T19:55:24;21.30;99.90
7248;DHT22;3665;51.034;13.642;2022-08-25T20:00:19;21.30;1.00
7248;DHT22;3665;51.034;13.642;2022-08-25T20:05:09;21.10;1.00
7248;DHT22;3665;51.034;13.642;2022-08-25T20:09:54;21.00;1.00
7248;DHT22;3665;51.034;13.642;2022-08-25T20:15:00;21.00;41.90
7248;DHT22;3665;51.034;13.642;2022-08-25T20:19:57;20.80;1.00
7248;DHT22;3665;51.034;13.642;2022-08-25T20:24:50;20.70;1.00
7248;DHT22;3665;51.034;13.642;2022-08-25T20:29:39;20.50;99.90
7248;DHT22;3665;51.034;13.642;2022-08-25T20:34:26;20.40;1.00
7248;DHT22;3665;51.034;13.642;2022-08-25T20:39:18;20.40;1.00
7248;DHT22;3665;51.034;13.642;2022-08-25T20:44:15;20.30;1.00
7248;DHT22;3665;51.034;13.642;2022-08-25T20:49:05;20.20;1.00
7248;DHT22;3665;51.034;13.642;2022-08-25T20:53:51;20.20;1.00
7248;DHT22;3665;51.034;13.642;2022-08-25T20:58:44;20.20;1.00
7248;DHT22;3665;51.034;13.642;2022-08-25T21:03:41;20.10;99.90
7248;DHT22;3665;51.034;13.642;2022-08-25T21:08:35;20.10;99.90
7248;DHT22;3665;51.034;13.642;2022-08-25T21:13:31;20.10;1.00
7248;DHT22;3665;51.034;13.642;2022-08-25T21:18:16;20.00;1.00
7248;DHT22;3665;51.034;13.642;2022-08-25T21:23:20;20.00;99.90
7248;DHT22;3665;51.034;13.642;2022-08-25T21:28:13;19.90;99.90
7248;DHT22;3665;51.034;13.642;2022-08-25T21:32:58;19.90;99.90
7248;DHT22;3665;51.034;13.642;2022-08-25T21:37:55;19.80;99.90
7248;DHT22;3665;51.034;13.642;2022-08-25T21:42:52;19.70;99.90
7248;DHT22;3665;51.034;13.642;2022-08-25T21:47:49;19.60;99.90
7248;DHT22;3665;51.034;13.642;2022-08-25T21:52:34;19.50;99.90
7248;DHT22;3665;51.034;13.642;2022-08-25T21:57:25;19.50;99.90
7248;DHT22;3665;51.034;13.642;2022-08-25T22:02:21;19.40;99.90
7248;DHT22;3665;51.034;13.642;2022-08-25T22:07:08;19.30;99.90
7248;DHT22;3665;51.034;13.642;2022-08-25T22:18:58;19.30;99.90
7248;DHT22;3665;51.034;13.642;2022-08-25T22:24:25;19.30;99.90
7248;DHT22;3665;51.034;13.642;2022-08-25T22:30:14;19.20;99.90
7248;DHT22;3665;51.034;13.642;2022-08-25T22:35:50;19.20;99.90
7248;DHT22;3665;51.034;13.642;2022-08-25T22:41:09;19.20;99.90
7248;DHT22;3665;51.034;13.642;2022-08-25T22:54:15;19.20;99.90
7248;DHT22;3665;51.034;13.642;2022-08-25T23:08:17;19.10;99.90
7248;DHT22;3665;51.034;13.642;2022-08-25T23:12:40;19.10;99.90
7248;DHT22;3665;51.034;13.642;2022-08-25T23:17:25;19.10;99.90
7248;DHT22;3665;51.034;13.642;2022-08-25T23:22:11;19.00;99.90
7248;DHT22;3665;51.034;13.642;2022-08-25T23:26:59;19.00;99.90
7248;DHT22;3665;51.034;13.642;2022-08-25T23:31:46;18.80;99.90
7248;DHT22;3665;51.034;13.642;2022-08-25T23:36:32;18.70;99.90
7248;DHT22;3665;51.034;13.642;2022-08-25T23:41:19;18.60;99.90
7248;DHT22;3665;51.034;13.642;2022-08-25T23:46:04;18.70;99.90
7248;DHT22;3665;51.034;13.642;2022-08-25T23:50:49;18.80;99.90
7248;DHT22;3665;51.034;13.642;2022-08-25T23:55:35;18.80;99.90
